Data for 06/22/2007

Time Sea-Level Adjusted Pressure Absolute Pressure Temperature Relative Humidity Dew Point   
(mb) (inHg) (mb) (inHg) (C) (F) (%) (C) (F)
00:05 1020 30.12 849 25.07 19.4 66.9 47 7.8 46.1
00:10 1020 30.12 849 25.07 19 66.3 48 7.9 46.3
00:15 1019 30.09 849 25.07 18.8 65.9 48 7.6 45.7
00:20 1019 30.09 849 25.07 18.9 66 47 7.4 45.4
00:25 1019 30.09 849 25.07 18.8 65.8 47 7.5 45.5
00:30 1019 30.09 849 25.07 18.4 65 49 7.6 45.6
00:35 1019 30.09 849 25.07 18.2 64.7 48 7.2 45
00:40 1019 30.09 849 25.07 18.1 64.5 50 7.7 45.8
00:45 1019 30.09 849 25.07 18 64.3 47 6.6 43.9
00:50 1019 30.09 849 25.07 18.2 64.7 47 6.7 44
00:55 1019 30.09 849 25.07 18.2 64.7 47 6.7 44.1
01:00 1020 30.12 849 25.07 18.3 65 46 6.8 44.2
01:05 1020 30.12 849 25.07 18.4 65.2 45 6.5 43.7
01:10 1020 30.12 849 25.07 18.4 65.2 47 7 44.7
01:15 1020 30.12 849 25.07 17.7 63.9 48 6.6 43.9
01:20 1020 30.12 849 25.07 17.3 63.2 51 7.3 45.1
01:25 1020 30.12 849 25.07 16.8 62.3 51 6.9 44.3
01:30 1020 30.12 849 25.07 17.4 63.2 46 5.8 42.5
01:35 1020 30.12 849 25.07 18 64.3 45 6.1 43
01:40 1020 30.12 849 25.07 17.9 64.2 48 7 44.6
01:45 1020 30.12 849 25.07 17.7 63.8 47 6.4 43.5
01:50 1020 30.12 849 25.07 17.5 63.5 48 6.4 43.5
01:55 1020 30.12 849 25.07 17.2 62.9 52 7.3 45.1
02:00 1020 30.12 849 25.07 16.3 61.4 51 6.1 43.1
02:05 1020 30.12 849 25.07 16.8 62.2 48 5.7 42.3
02:10 1020 30.12 849 25.07 17.4 63.3 48 6.3 43.4
02:15 1020 30.12 849 25.07 16.4 61.5 55 7.3 45.2
02:20 1020 30.12 849 25.07 15.7 60.2 54 6.4 43.4
02:25 1020 30.12 849 25.07 15.6 60.1 54 6.5 43.7
02:30 1020 30.12 849 25.07 15.3 59.6 55 6.5 43.6
02:35 1020 30.12 849 25.07 15.3 59.5 54 6.1 43
02:40 1020 30.12 849 25.07 15.7 60.3 52 5.9 42.6
02:45 1020 30.12 850 25.1 15.9 60.7 52 6.3 43.3
02:50 1020 30.12 850 25.1 15.4 59.7 55 6.5 43.8
02:55 1020 30.12 850 25.1 14.8 58.7 56 6.3 43.3
03:00 1020 30.12 850 25.1 15 58.9 54 5.8 42.4
03:05 1020 30.12 850 25.1 15.3 59.6 53 5.9 42.6
03:10 1021 30.15 850 25.1 15.4 59.8 54 6.3 43.3
03:15 1020 30.12 850 25.1 15.2 59.4 59 7.4 45.3
03:20 1021 30.15 850 25.1 14.9 58.8 56 6.3 43.4
03:25 1021 30.15 850 25.1 14.9 58.9 55 6.1 43
03:30 1021 30.15 850 25.1 14.9 58.8 55 6.1 42.9
03:35 1020 30.12 850 25.1 14.9 58.8 55 6.1 43
03:40 1020 30.12 850 25.1 14.7 58.4 56 6.1 43
03:45 1020 30.12 850 25.1 14.8 58.7 55 6 42.8
03:50 1020 30.12 850 25.1 15.1 59.1 53 5.7 42.3
03:55 1020 30.12 850 25.1 15.2 59.3 54 6 42.7
04:00 1020 30.12 850 25.1 14.9 58.8 56 6.2 43.1
04:05 1020 30.12 850 25.1 14.6 58.3 57 6.2 43.2
04:10 1020 30.12 850 25.1 14.5 58 57 6 42.8
04:15 1020 30.12 850 25.1 14.5 58.2 57 6.3 43.3
04:20 1020 30.12 850 25.1 14.7 58.5 56 6.1 43
04:25 1020 30.12 850 25.1 14.6 58.2 57 6.2 43.1
04:30 1020 30.12 850 25.1 14.5 58 57 6.1 43.1
04:35 1020 30.12 850 25.1 14.5 58 58 6.4 43.5
04:40 1020 30.12 849 25.07 14.2 57.5 59 6.3 43.3
04:45 1020 30.12 850 25.1 14.2 57.6 59 6.3 43.4
04:50 1020 30.12 850 25.1 14.2 57.5 59 6.3 43.3
04:55 1020 30.12 850 25.1 14.1 57.4 60 6.4 43.6
05:00 1020 30.12 850 25.1 14.2 57.5 59 6.4 43.6
05:05 1020 30.12 850 25.1 14 57.2 60 6.5 43.8
05:10 1020 30.12 850 25.1 13.9 57 61 6.5 43.7
05:15 1020 30.12 850 25.1 13.9 57 60 6.4 43.5
05:20 1020 30.12 850 25.1 13.9 56.9 62 6.7 44.1
05:25 1020 30.12 850 25.1 13.5 56.2 63 6.6 43.8
05:30 1020 30.12 850 25.1 13.3 55.9 63 6.5 43.7
05:35 1020 30.12 850 25.1 13.5 56.2 62 6.4 43.5
05:40 1020 30.12 850 25.1 13.8 56.8 61 6.4 43.4
05:45 1020 30.12 850 25.1 14.1 57.3 60 6.5 43.6
05:50 1020 30.12 850 25.1 14.2 57.5 60 6.6 43.9
05:55 1020 30.12 850 25.1 14.1 57.4 60 6.6 43.9
06:00 1020 30.12 850 25.1 14.2 57.6 59 6.4 43.5
06:05 1020 30.12 850 25.1 14.3 57.7 59 6.4 43.5
06:10 1020 30.12 850 25.1 14.1 57.4 59 6.3 43.4
06:15 1020 30.12 850 25.1 14.2 57.5 58 6.2 43.2
06:20 1020 30.12 850 25.1 14.3 57.8 58 6.3 43.4
06:25 1020 30.12 849 25.07 14.3 57.7 59 6.4 43.5
06:30 1020 30.12 849 25.07 14.3 57.8 59 6.6 43.8
06:35 1020 30.12 849 25.07 14.2 57.6 60 6.7 44.1
06:40 1020 30.12 850 25.1 14.3 57.7 61 6.8 44.3
06:45 1020 30.12 849 25.07 14.5 58.1 60 6.8 44.3
06:50 1020 30.12 849 25.07 14.7 58.5 59 6.8 44.2
06:55 1020 30.12 849 25.07 15.1 59.2 57 6.8 44.3
07:00 1020 30.12 850 25.1 15.4 59.7 56 6.8 44.3
07:05 1020 30.12 850 25.1 15.7 60.2 56 7.1 44.8
07:10 1020 30.12 850 25.1 15.9 60.7 59 8 46.4
07:15 1020 30.12 850 25.1 16.4 61.5 56 7.8 46
07:20 1021 30.15 850 25.1 16.1 60.9 58 7.8 46.1
07:25 1021 30.15 850 25.1 16.1 61 55 7.2 45
07:30 1021 30.15 850 25.1 16.7 62 54 7.4 45.3
07:35 1021 30.15 850 25.1 17.2 63 53 7.7 45.8
07:40 1021 30.15 850 25.1 17.5 63.4 53 7.7 45.9
07:45 1021 30.15 850 25.1 17.7 63.9 52 7.8 46.1
07:50 1021 30.15 850 25.1 17.9 64.2 52 8 46.3
07:55 1021 30.15 850 25.1 17.5 63.5 53 8 46.4
08:00 1021 30.15 850 25.1 17.1 62.7 52 7.1 44.8
08:05 1021 30.15 850 25.1 17.4 63.4 50 7 44.5
08:10 1021 30.15 850 25.1 17.7 63.9 50 7.3 45.1
08:15 1021 30.15 850 25.1 17.7 63.9 50 7.4 45.3
08:20 1021 30.15 850 25.1 18.6 65.6 47 7.3 45.1
08:25 1021 30.15 850 25.1 19.1 66.4 46 7.3 45.1
08:30 1021 30.15 850 25.1 19 66.1 47 7.7 45.8
08:35 1021 30.15 850 25.1 19.5 67.1 45 7.5 45.5
08:40 1021 30.15 850 25.1 20.3 68.6 42 7.1 44.8
08:45 1021 30.15 850 25.1 20.8 69.5 42 7.5 45.4
08:50 1021 30.15 850 25.1 20.6 69 45 8.3 47
08:55 1021 30.15 850 25.1 20 68 46 8.3 46.9
09:00 1021 30.15 850 25.1 19.9 67.8 45 7.9 46.2
09:05 1021 30.15 850 25.1 20.5 68.8 42 7.4 45.3
09:10 1021 30.15 850 25.1 20.8 69.4 41 7.3 45.1
09:15 1021 30.15 850 25.1 21.2 70.1 40 7.3 45.2
09:20 1021 30.15 850 25.1 21.3 70.3 41 7.6 45.7
09:25 1021 30.15 850 25.1 21.9 71.5 40 7.8 46
09:30 1021 30.15 850 25.1 22.4 72.3 39 8.1 46.6
09:35 1021 30.15 850 25.1 22.5 72.5 42 9 48.2
09:40 1021 30.15 850 25.1 22.1 71.7 42 8.6 47.5
09:45 1021 30.15 850 25.1 21.9 71.5 43 8.8 47.9
09:50 1020 30.12 850 25.1 22.3 72.1 41 8.4 47.2
09:55 1020 30.12 850 25.1 23.1 73.6 37 8 46.4
10:00 1020 30.12 850 25.1 23.8 74.8 36 8.1 46.6
10:05 1020 30.12 850 25.1 23.4 74.1 38 8.6 47.4
10:10 1020 30.12 850 25.1 23.5 74.2 38 8.5 47.4
10:15 1020 30.12 849 25.07 23.7 74.7 37 8.3 47
10:20 1020 30.12 849 25.07 23.7 74.6 36 8 46.3
10:25 1020 30.12 849 25.07 23.4 74.1 34 6.8 44.2
10:30 1020 30.12 849 25.07 23.6 74.5 34 7.2 44.9
10:35 1020 30.12 849 25.07 23.2 73.8 37 7.8 46.1
10:40 1020 30.12 849 25.07 24.4 76 33 7.6 45.6
10:45 1020 30.12 849 25.07 24.8 76.6 33 7.7 45.9
10:50 1020 30.12 849 25.07 23.9 75.1 35 7.8 46
10:55 1020 30.12 849 25.07 24.4 75.9 34 7.8 46.1
11:00 1020 30.12 849 25.07 25.1 77.3 32 7.5 45.6
11:05 1020 30.12 849 25.07 24.5 76.1 33 7.2 45
11:10 1020 30.12 849 25.07 25.5 77.9 31 7.5 45.5
11:15 1020 30.12 849 25.07 26.2 79.2 30 7.3 45.1
11:20 1020 30.12 849 25.07 26.6 79.9 29 7.4 45.3
11:25 1020 30.12 849 25.07 26.6 79.9 30 7.9 46.3
11:30 1019 30.09 849 25.07 26.1 78.9 30 7.2 45
11:35 1019 30.09 849 25.07 26.2 79.1 30 7.5 45.5
11:40 1019 30.09 849 25.07 25.8 78.4 31 7.5 45.4
11:45 1019 30.09 849 25.07 26.1 78.9 30 7.4 45.3
11:50 1019 30.09 848 25.04 26.6 80 30 7.8 46
11:55 1019 30.09 848 25.04 26.8 80.2 28 7.2 45
12:00 1019 30.09 848 25.04 26.6 79.9 28 6.8 44.3
12:05 1019 30.09 848 25.04 27.6 81.7 26 6.5 43.8
12:10 1019 30.09 848 25.04 26.8 80.3 27 6.7 44.1
12:15 1019 30.09 848 25.04 26.8 80.2 27 6.5 43.7
12:20 1019 30.09 848 25.04 27.1 80.8 28 7.1 44.9
12:25 1019 30.09 848 25.04 27.1 80.7 27 6.5 43.7
12:30 1019 30.09 848 25.04 26.6 79.9 26 5.9 42.7
12:35 1019 30.09 848 25.04 27.2 81 27 7.1 44.7
12:40 1019 30.09 848 25.04 27 80.5 27 6.4 43.6
12:45 1019 30.09 848 25.04 26.8 80.2 27 6.3 43.3
12:50 1018 30.06 848 25.04 26.2 79.2 27 5.8 42.4
12:55 1018 30.06 848 25.04 27.2 81 25 5.7 42.2
13:00 1018 30.06 847 25.01 28.4 83.1 24 6.2 43.1
13:05 1018 30.06 847 25.01 27.9 82.2 27 7.6 45.6
13:10 1018 30.06 847 25.01 27.7 81.9 26 6.9 44.4
13:15 1018 30.06 847 25.01 27.5 81.6 26 6.4 43.5
13:20 1018 30.06 847 25.01 28 82.4 27 7.6 45.7
13:25 1018 30.06 847 25.01 27.8 82.1 24 6 42.8
13:30 1018 30.06 847 25.01 28.8 83.8 21 4.4 40
13:35 1018 30.06 847 25.01 29.6 85.2 21 4.9 40.9
13:40 1018 30.06 847 25.01 29.6 85.2 21 5 41
13:45 1018 30.06 847 25.01 30.1 86.3 21 5.5 42
13:50 1017 30.03 847 25.01 29.5 85.1 21 5 41
13:55 1017 30.03 847 25.01 28.4 83.1 20 3.7 38.7
14:00 1017 30.03 847 25.01 28.6 83.4 23 5.5 41.9
14:05 1017 30.03 846 24.98 29.9 85.9 20 4.9 40.8
14:10 1017 30.03 846 24.98 30.3 86.5 20 4.9 40.8
14:15 1017 30.03 846 24.98 30.6 87 17 3.4 38.2
14:20 1017 30.03 846 24.98 30.6 87.1 17 3.1 37.5
14:25 1017 30.03 846 24.98 30 86 16 2.2 35.9
14:30 1017 30.03 846 24.98 30.7 87.2 15 1.5 34.7
14:35 1017 30.03 846 24.98 31.3 88.3 15 2.3 36.1
14:40 1017 30.03 846 24.98 31.4 88.6 18 4.4 39.9
14:45 1017 30.03 846 24.98 30.1 86.1 18 3.7 38.7
14:50 1017 30.03 846 24.98 30.9 87.5 19 4.6 40.3
14:55 1017 30.03 846 24.98 31.5 88.6 17 3.5 38.3
15:00 1017 30.03 846 24.98 31.8 89.2 16 3 37.4
15:05 1017 30.03 846 24.98 30.4 86.7 16 2.3 36.1
15:10 1017 30.03 846 24.98 30.1 86.1 16 1.5 34.7
15:15 1016 30 846 24.98 30.8 87.4 15 1.2 34.1
15:20 1016 30 846 24.98 30.1 86.2 16 1.5 34.8
15:25 1016 30 846 24.98 30.8 87.4 16 2.2 36
15:30 1016 30 846 24.98 31.5 88.7 16 2.7 36.8
15:35 1016 30 845 24.95 31.5 88.7 15 1.7 35
15:40 1016 30 845 24.95 31.3 88.3 15 1.6 35
15:45 1016 30 845 24.95 30.9 87.7 16 2.5 36.4
15:50 1016 30 845 24.95 31 87.9 15 1.5 34.8
15:55 1016 30 845 24.95 30.9 87.6 15 1.7 35.1
16:00 1016 30 845 24.95 30.3 86.5 15 1.3 34.3
16:05 1016 30 845 24.95 30.8 87.4 15 1.6 34.9
16:10 1016 30 845 24.95 31.3 88.3 14 1.2 34.2
16:15 1016 30 845 24.95 30.8 87.4 15 1.5 34.7
16:20 1016 30 845 24.95 30.9 87.7 15 1.6 34.8
16:25 1016 30 845 24.95 30.9 87.7 15 1.6 34.9
16:30 1015 29.97 845 24.95 31.7 89.1 14 1.4 34.6
16:35 1015 29.97 845 24.95 31.3 88.4 15 1.6 34.8
16:40 1015 29.97 845 24.95 31.1 88 14 1.3 34.3
16:45 1015 29.97 845 24.95 31.5 88.7 15 2.5 36.5
16:50 1015 29.97 845 24.95 31.8 89.3 15 2.7 36.8
16:55 1015 29.97 844 24.92 32 89.6 15 2.5 36.5
17:00 1015 29.97 844 24.92 31.8 89.3 14 1.4 34.6
17:05 1015 29.97 844 24.92 31.9 89.3 13 0.6 33
17:10 1015 29.97 844 24.92 32.4 90.2 13 1.3 34.3
17:15 1015 29.97 844 24.92 32 89.6 13 0.9 33.6
17:20 1015 29.97 844 24.92 31.8 89.2 13 0.4 32.6
17:25 1015 29.97 844 24.92 32.1 89.7 13 0.3 32.6
17:30 1015 29.97 844 24.92 31.9 89.5 13 0.7 33.2
17:35 1015 29.97 844 24.92 32.3 90.2 13 0.5 32.9
17:40 1015 29.97 844 24.92 32.4 90.4 13 0.8 33.4
17:45 1015 29.97 844 24.92 32.4 90.3 13 1 33.8
17:50 1015 29.97 844 24.92 32.5 90.5 14 1.7 35
17:55 1015 29.97 844 24.92 31.8 89.2 14 1 33.8
18:00 1015 29.97 844 24.92 31.8 89.2 14 1.1 33.9
18:05 1015 29.97 844 24.92 32.1 89.7 13 0.1 32.1
18:10 1015 29.97 844 24.92 32 89.5 13 0.2 32.4
18:15 1015 29.97 844 24.92 31.7 89.1 14 1.2 34.1
18:20 1014 29.94 844 24.92 31.3 88.4 15 2.1 35.8
18:25 1014 29.94 844 24.92 31.7 89.1 15 2.2 35.9
18:30 1014 29.94 844 24.92 31.7 89 13 0.8 33.4
18:35 1014 29.94 844 24.92 31.2 88.1 14 1.3 34.3
18:40 1014 29.94 844 24.92 31.3 88.3 15 1.6 34.8
18:45 1014 29.94 843 24.89 31.4 88.4 15 1.7 35.1
18:50 1014 29.94 843 24.89 31.3 88.3 15 1.8 35.2
18:55 1014 29.94 843 24.89 31.1 87.9 15 1.9 35.4
19:00 1014 29.94 843 24.89 31.2 88.2 13 -0.1 31.8
19:05 1014 29.94 843 24.89 31.9 89.4 13 0 32
19:10 1014 29.94 843 24.89 31.9 89.5 16 3.1 37.6
19:15 1014 29.94 843 24.89 31 87.8 15 2.1 35.8
19:20 1014 29.94 843 24.89 30.7 87.3 16 2.6 36.6
19:25 1014 29.94 843 24.89 30.4 86.7 16 2.4 36.3
19:30 1014 29.94 843 24.89 29.7 85.4 24 7.6 45.6
19:35 1014 29.94 843 24.89 28.8 83.9 27 8.1 46.5
19:40 1014 29.94 843 24.89 28.1 82.6 27 7.4 45.3
19:45 1014 29.94 843 24.89 27.6 81.7 28 7.7 45.8
19:50 1014 29.94 843 24.89 27.3 81.1 28 7.4 45.3
19:55 1014 29.94 843 24.89 27 80.6 29 7.6 45.7
20:00 1014 29.94 843 24.89 26.8 80.2 29 7.7 45.9
20:05 1014 29.94 843 24.89 26.7 80 30 7.9 46.2
20:10 1014 29.94 843 24.89 26.6 79.9 29 7.6 45.6
20:15 1014 29.94 843 24.89 26.5 79.8 31 8.1 46.7
20:20 1014 29.94 843 24.89 26.4 79.5 31 8 46.4
20:25 1014 29.94 843 24.89 26.2 79.1 32 8.6 47.5
20:30 1014 29.94 843 24.89 25.9 78.7 34 9 48.2
20:35 1014 29.94 843 24.89 25.7 78.3 34 8.8 47.8
20:40 1014 29.94 843 24.89 25.7 78.3 33 8.3 46.9
20:45 1014 29.94 843 24.89 25.8 78.4 32 8.2 46.8
20:50 1014 29.94 843 24.89 25.6 78.2 33 8.5 47.4
20:55 1014 29.94 843 24.89 25.4 77.7 33 8.2 46.7
21:00 1014 29.94 843 24.89 25.3 77.5 33 7.9 46.3
21:05 1014 29.94 843 24.89 25.2 77.3 33 8 46.5
21:10 1014 29.94 843 24.89 25 77 33 7.9 46.2
21:15 1014 29.94 843 24.89 24.9 76.9 33 7.7 45.8
21:20 1014 29.94 843 24.89 24.9 76.8 33 7.6 45.7
21:25 1014 29.94 843 24.89 24.9 76.8 32 7.1 44.8
21:30 1014 29.94 843 24.89 24.9 76.8 31 7 44.6
21:35 1014 29.94 843 24.89 24.9 76.8 30 6.5 43.7
21:40 1014 29.94 843 24.89 24.9 76.9 30 6.5 43.8
21:45 1014 29.94 843 24.89 24.8 76.7 30 6.5 43.7
21:50 1013 29.91 843 24.89 24.6 76.3 30 6.3 43.3
21:55 1014 29.94 843 24.89 24.5 76.1 31 6.5 43.7
22:00 1014 29.94 843 24.89 24.3 75.7 31 6.4 43.6
22:05 1014 29.94 843 24.89 24.3 75.7 30 5.7 42.3
22:10 1014 29.94 843 24.89 24.4 76 30 6.1 43
22:15 1013 29.91 843 24.89 24.2 75.6 32 6.5 43.7
22:20 1014 29.94 843 24.89 24.3 75.7 31 6.2 43.2
22:25 1014 29.94 843 24.89 24 75.3 31 5.9 42.6
22:30 1014 29.94 843 24.89 23.9 75 32 6.2 43.1
22:35 1014 29.94 843 24.89 23.7 74.6 31 6 42.7
22:40 1014 29.94 843 24.89 23.6 74.5 29 4.6 40.3
22:45 1014 29.94 843 24.89 24.1 75.3 32 6.6 43.8
22:50 1014 29.94 843 24.89 23.4 74.2 28 4.3 39.8
22:55 1014 29.94 843 24.89 23.3 74 32 5.9 42.5
23:00 1014 29.94 843 24.89 22.7 72.8 34 6.1 43
23:05 1013 29.91 843 24.89 21.9 71.5 35 5.8 42.5
23:10 1014 29.94 843 24.89 21.8 71.3 34 5.5 41.8
23:15 1014 29.94 843 24.89 21.8 71.2 32 4.6 40.3
23:20 1014 29.94 843 24.89 22 71.6 32 4.8 40.6
23:25 1013 29.91 843 24.89 22 71.6 30 3.7 38.7
23:30 1013 29.91 843 24.89 22.2 71.9 30 4 39.1
23:35 1013 29.91 843 24.89 21.9 71.5 29 3.4 38.2
23:40 1013 29.91 843 24.89 22 71.7 30 3.6 38.5
23:45 1013 29.91 843 24.89 22.1 71.7 29 3.5 38.3
23:50 1013 29.91 843 24.89 22 71.6 28 3 37.3
23:55 1013 29.91 843 24.89 21.9 71.5 27 2.3 36.1
24:00 1013 29.91 842 24.86 22 71.5 25 1.4 34.5